createdAt,value
2023-01-13T03:07:56.986Z,99663.06
2023-01-13T03:10:26.329Z,99661.31
2023-01-13T03:13:24.885Z,99675.97
2023-01-13T03:16:08.327Z,99669.13
2023-01-13T03:19:09.086Z,99668.16
2023-01-13T03:21:35.546Z,99661.28
2023-01-13T03:24:19.918Z,99658.59
2023-01-13T03:26:49.765Z,99660.34
2023-01-13T03:29:25.893Z,99661.25
2023-01-13T03:32:00.964Z,99662.94
2023-01-13T03:34:37.091Z,99661.25
2023-01-13T03:37:08.249Z,99662.16
2023-01-13T03:39:39.352Z,99654.34
2023-01-13T03:42:11.731Z,99644.00
2023-01-13T03:44:48.725Z,99649.13
2023-01-13T03:47:27.550Z,99649.13
2023-01-13T03:50:01.369Z,99660.38
2023-01-13T03:52:58.215Z,99663.84
2023-01-13T03:55:31.648Z,99651.69
2023-01-13T03:58:06.742Z,99661.19
2023-01-13T04:00:41.017Z,99657.72
2023-01-13T04:03:32.618Z,99655.13
2023-01-13T04:06:10.051Z,99660.34
2023-01-13T04:08:42.099Z,99667.31
2023-01-13T04:11:24.964Z,99678.38
2023-01-13T04:13:53.938Z,99675.00
2023-01-13T04:16:20.775Z,99676.75
2023-01-13T04:18:49.937Z,99678.44
2023-01-13T04:21:16.622Z,99673.28
2023-01-13T04:23:43.148Z,99664.56
2023-01-13T04:26:09.692Z,99678.38
2023-01-13T04:28:36.283Z,99667.91
2023-01-13T04:31:02.923Z,99673.09
2023-01-13T04:33:29.496Z,99659.28
2023-01-13T04:35:56.190Z,99676.59
2023-01-13T04:38:22.835Z,99669.66
2023-01-13T04:40:49.448Z,99660.22
2023-01-13T04:43:16.255Z,99657.63
2023-01-13T04:45:43.659Z,99667.97
2023-01-13T04:48:10.562Z,99664.59
2023-01-13T04:50:37.298Z,99658.56
2023-01-13T04:53:04.153Z,99660.25
2023-01-13T04:55:31.803Z,99671.44
2023-01-13T04:58:06.893Z,99664.53
2023-01-13T05:00:33.989Z,99664.44
2023-01-13T05:03:00.944Z,99654.06
2023-01-13T05:05:29.231Z,99642.84
2023-01-13T05:07:55.890Z,99641.94
2023-01-13T05:10:23.973Z,99641.09
2023-01-13T05:13:09.601Z,99627.38
2023-01-13T05:15:54.726Z,99618.63
2023-01-13T05:18:21.652Z,99627.31
2023-01-13T05:20:48.275Z,99634.16
2023-01-13T05:23:33.455Z,99635.00
2023-01-13T05:26:00.054Z,99631.56
2023-01-13T05:28:30.655Z,99628.00
2023-01-13T05:30:57.332Z,99634.88
2023-01-13T05:33:23.883Z,99635.88
2023-01-13T05:35:50.635Z,99618.56
2023-01-13T05:38:18.515Z,99622.03
2023-01-13T05:41:04.358Z,99627.97
2023-01-13T05:43:32.883Z,99626.22
2023-01-13T05:46:08.734Z,99623.78
2023-01-13T05:48:38.263Z,99637.63
2023-01-13T05:51:07.346Z,99631.47
2023-01-13T05:53:34.833Z,99634.94
2023-01-13T05:56:04.872Z,99634.09
2023-01-13T05:58:31.562Z,99626.38
2023-01-13T06:01:02.839Z,99621.19
2023-01-13T06:03:29.622Z,99626.31
2023-01-13T06:05:59.238Z,99618.59
2023-01-13T06:08:26.270Z,99626.34
2023-01-13T06:10:53.276Z,99621.94
2023-01-13T06:13:20.013Z,99622.91
2023-01-13T06:15:46.700Z,99642.72
2023-01-13T06:18:13.652Z,99647.91
2023-01-13T06:20:40.546Z,99648.84
2023-01-13T06:23:10.131Z,99637.63
2023-01-13T06:25:39.535Z,99646.13
2023-01-13T06:28:06.118Z,99634.91
2023-01-13T06:30:39.872Z,99634.78
2023-01-13T06:33:11.540Z,99645.34
2023-01-13T06:35:40.406Z,99660.00
2023-01-13T06:38:12.994Z,99658.16
2023-01-13T06:40:42.440Z,99646.94
2023-01-13T06:43:16.424Z,99652.13
2023-01-13T06:45:46.497Z,99648.69
2023-01-13T06:48:13.727Z,99655.56
2023-01-13T06:50:42.103Z,99655.56
2023-01-13T06:53:09.584Z,99641.78
2023-01-13T06:55:36.356Z,99664.13
2023-01-13T06:58:03.439Z,99664.28
2023-01-13T07:00:30.109Z,99669.47
2023-01-13T07:03:09.837Z,99670.34
2023-01-13T07:05:36.918Z,99676.22
2023-01-13T07:08:03.560Z,99662.41
2023-01-13T07:10:30.771Z,99662.44
2023-01-13T07:13:19.523Z,99662.38
2023-01-13T07:15:56.885Z,99673.66
2023-01-13T07:18:24.345Z,99667.50
2023-01-13T07:21:04.904Z,99666.75
2023-01-13T07:23:34.485Z,99667.66
2023-01-13T07:26:01.178Z,99674.47
2023-01-13T07:28:29.765Z,99683.97
2023-01-13T07:30:58.164Z,99690.88
2023-01-13T07:33:24.839Z,99680.59
2023-01-13T07:36:00.196Z,99690.88
2023-01-13T07:38:27.326Z,99684.03
2023-01-13T07:40:54.027Z,99684.16
2023-01-13T07:43:32.964Z,99678.91
2023-01-13T07:46:02.316Z,99695.19
2023-01-13T07:48:29.755Z,99684.75
2023-01-13T07:50:56.341Z,99698.59
2023-01-13T07:53:24.906Z,99696.81
2023-01-13T07:55:55.919Z,99712.44
2023-01-13T07:58:23.132Z,99708.09
2023-01-13T08:00:49.961Z,99705.53
2023-01-13T08:03:16.924Z,99709.75
2023-01-13T08:05:43.523Z,99705.44
2023-01-13T08:08:10.289Z,99709.91
2023-01-13T08:10:37.671Z,99719.38
2023-01-13T08:13:22.404Z,99716.03
2023-01-13T08:15:51.509Z,99719.47
2023-01-13T08:18:21.234Z,99716.06
2023-01-13T08:20:49.395Z,99725.50
2023-01-13T08:23:16.206Z,99729.78
2023-01-13T08:25:42.859Z,99720.31
2023-01-13T08:28:09.541Z,99733.31
2023-01-13T08:30:36.175Z,99728.09
2023-01-13T08:33:07.273Z,99727.28
2023-01-13T08:35:36.085Z,99724.78
2023-01-13T08:38:02.826Z,99733.44
2023-01-13T08:40:29.915Z,99733.50
2023-01-13T08:42:57.621Z,99733.34
2023-01-13T08:45:24.455Z,99736.88
2023-01-13T08:47:51.109Z,99743.69
2023-01-13T08:50:18.354Z,99735.09
2023-01-13T08:52:45.433Z,99738.50
2023-01-13T08:55:15.466Z,99738.63
2023-01-13T08:57:42.290Z,99729.16
2023-01-13T09:00:10.007Z,99734.38
2023-01-13T09:02:38.389Z,99730.78
2023-01-13T09:05:07.408Z,99744.66
2023-01-13T09:07:36.396Z,99728.31
2023-01-13T09:10:05.858Z,99728.19
2023-01-13T09:12:51.791Z,99735.22
2023-01-13T09:15:19.210Z,99738.56
2023-01-13T09:17:46.479Z,99752.47
2023-01-13T09:20:14.086Z,99742.22
2023-01-13T09:22:41.465Z,99745.56
2023-01-13T09:25:09.029Z,99753.34
2023-01-13T09:27:36.052Z,99759.41
2023-01-13T09:30:02.735Z,99758.41
2023-01-13T09:32:29.481Z,99773.13
2023-01-13T09:35:02.253Z,99775.78
2023-01-13T09:37:37.354Z,99783.56
2023-01-13T09:40:07.933Z,99774.16
2023-01-13T09:43:11.705Z,99775.13
2023-01-13T09:45:44.166Z,99777.63
2023-01-13T09:48:18.847Z,99775.00
2023-01-13T09:50:49.098Z,99779.34
2023-01-13T09:53:27.908Z,99773.28
2023-01-13T09:55:55.147Z,99782.66
2023-01-13T09:58:22.041Z,99781.03
2023-01-13T10:01:07.855Z,99792.28
2023-01-13T10:03:36.268Z,99802.63
2023-01-13T10:06:18.144Z,99796.56
2023-01-13T10:08:47.183Z,99774.94
2023-01-13T10:11:38.687Z,99781.94
2023-01-13T10:14:31.998Z,99780.91
2023-01-13T10:17:12.171Z,99775.88
2023-01-13T10:19:44.538Z,99783.66
2023-01-13T10:22:24.760Z,99775.03
2023-01-13T10:25:00.556Z,99772.63
2023-01-13T10:27:37.722Z,99766.63
2023-01-13T10:30:17.571Z,99779.53
2023-01-13T10:32:52.618Z,99769.09
2023-01-13T10:35:58.096Z,99769.97
2023-01-13T10:38:46.113Z,99778.59
2023-01-13T10:41:15.818Z,99782.13
2023-01-13T10:43:42.782Z,99767.44
2023-01-13T10:46:17.865Z,99774.41
2023-01-13T10:48:55.833Z,99764.78
2023-01-13T10:51:22.531Z,99771.75
2023-01-13T10:53:58.869Z,99775.13
2023-01-13T10:56:33.236Z,99766.66
2023-01-13T10:59:24.461Z,99754.53
2023-01-13T11:02:04.082Z,99770.91
2023-01-13T11:04:40.523Z,99770.97
2023-01-13T11:07:26.833Z,99764.91
2023-01-13T11:10:21.686Z,99773.50
2023-01-13T11:13:06.849Z,99767.53
2023-01-13T11:15:43.709Z,99770.00
2023-01-13T11:18:43.476Z,99769.38
2023-01-13T11:21:22.133Z,99766.78
2023-01-13T11:24:00.611Z,99772.09
2023-01-13T11:26:43.980Z,99771.16
2023-01-13T11:29:18.277Z,99772.91
2023-01-13T11:31:51.720Z,99767.75
2023-01-13T11:34:29.534Z,99768.59
2023-01-13T11:36:59.436Z,99767.78
2023-01-13T11:40:12.099Z,99777.25
2023-01-13T11:42:54.107Z,99771.97
2023-01-13T11:45:38.545Z,99777.25
2023-01-13T11:48:05.567Z,99780.75
2023-01-13T11:50:40.484Z,99775.47
2023-01-13T11:53:16.693Z,99768.63
2023-01-13T11:55:49.450Z,99773.78
2023-01-13T11:58:50.157Z,99766.91
2023-01-13T12:01:26.245Z,99771.16
2023-01-13T12:03:55.920Z,99777.13
2023-01-13T12:06:31.939Z,99778.81
2023-01-13T12:09:01.402Z,99791.06
2023-01-13T12:11:33.645Z,99788.44
2023-01-13T12:14:35.729Z,99796.94
2023-01-13T12:17:06.645Z,99792.59
2023-01-13T12:19:33.465Z,99813.25
2023-01-13T12:22:08.691Z,99804.69
2023-01-13T12:24:44.226Z,99801.25
2023-01-13T12:27:31.015Z,99809.78
2023-01-13T12:30:01.554Z,99806.31
2023-01-13T12:32:38.038Z,99808.09
2023-01-13T12:35:19.234Z,99814.22
2023-01-13T12:37:48.669Z,99821.00
2023-01-13T12:40:34.142Z,99821.94
2023-01-13T12:43:35.052Z,99810.44
2023-01-13T12:46:22.898Z,99830.97
2023-01-13T12:48:56.496Z,99844.78
2023-01-13T12:51:28.295Z,99845.69
2023-01-13T12:53:56.299Z,99839.81
2023-01-13T12:56:36.341Z,99846.59
2023-01-13T12:59:24.447Z,99839.75
2023-01-13T13:02:13.063Z,99856.34
2023-01-13T13:04:49.080Z,99845.00
2023-01-13T13:07:23.476Z,99841.56
2023-01-13T13:09:55.338Z,99843.09
2023-01-13T13:12:50.143Z,99842.44
2023-01-13T13:15:28.763Z,99850.34
2023-01-13T13:18:17.200Z,99841.84
2023-01-13T13:20:58.318Z,99865.16
2023-01-13T13:23:35.579Z,99864.22
2023-01-13T13:26:20.506Z,99872.47
2023-01-13T13:29:21.089Z,99877.06
2023-01-13T13:32:06.332Z,99878.56
2023-01-13T13:34:44.886Z,99877.72
2023-01-13T13:37:32.973Z,99872.66
2023-01-13T13:40:31.893Z,99865.72
2023-01-13T13:43:21.764Z,99882.16
2023-01-13T13:46:10.852Z,99883.81
2023-01-13T13:48:37.730Z,99908.84
2023-01-13T13:51:28.130Z,99917.56
2023-01-13T13:53:55.983Z,99905.25
2023-01-13T13:56:50.271Z,99914.69
2023-01-13T13:59:21.746Z,99913.56
2023-01-13T14:02:00.589Z,99929.66
2023-01-13T14:04:32.801Z,99929.63
2023-01-13T14:07:16.086Z,99925.13
2023-01-13T14:09:46.290Z,99936.19
2023-01-13T14:12:24.485Z,99941.53
2023-01-13T14:14:51.735Z,99942.41
2023-01-13T14:17:27.157Z,99942.09
2023-01-13T14:19:59.115Z,99939.13
2023-01-13T14:22:26.012Z,99948.72
2023-01-13T14:24:57.430Z,99948.06
2023-01-13T14:27:28.566Z,99950.44
2023-01-13T14:29:58.192Z,99955.81
2023-01-13T14:32:28.599Z,99962.06
2023-01-13T14:34:55.333Z,99954.16
2023-01-13T14:37:27.847Z,99962.84
2023-01-13T14:39:54.483Z,99971.47
2023-01-13T14:42:22.154Z,99970.69
2023-01-13T14:44:51.325Z,99980.94
2023-01-13T14:47:22.919Z,99988.88
2023-01-13T14:50:03.092Z,99993.00
2023-01-13T14:52:46.653Z,100004.47
2023-01-13T14:55:32.237Z,100002.59
2023-01-13T14:58:20.278Z,100007.59
2023-01-13T15:00:47.352Z,100006.78
2023-01-13T15:03:15.945Z,100016.13
2023-01-13T15:05:50.754Z,100028.91
2023-01-13T15:08:29.955Z,100017.50
2023-01-13T15:11:08.412Z,100011.41
2023-01-13T15:13:47.016Z,100040.53
2023-01-13T15:16:25.929Z,100026.97
2023-01-13T15:18:54.213Z,100037.75
2023-01-13T15:21:21.454Z,100043.78
2023-01-13T15:23:48.095Z,100050.41
2023-01-13T15:26:22.584Z,100046.47
2023-01-13T15:28:51.449Z,100065.38
2023-01-13T15:31:18.310Z,100067.44
2023-01-13T15:33:45.019Z,100075.09
2023-01-13T15:36:32.863Z,100081.88
2023-01-13T15:39:00.908Z,100081.03
2023-01-13T15:41:46.762Z,100088.94
2023-01-13T15:44:33.677Z,100092.16
2023-01-13T15:47:03.145Z,100087.78
2023-01-13T15:49:36.165Z,100088.69
2023-01-13T15:52:22.068Z,100090.19
2023-01-13T15:54:49.947Z,100101.53
2023-01-13T15:57:24.805Z,100115.16
2023-01-13T15:59:54.515Z,100115.56
2023-01-13T16:02:22.779Z,100119.06
2023-01-13T16:04:51.337Z,100119.69
2023-01-13T16:07:18.962Z,100116.50
2023-01-13T16:09:45.929Z,100123.59
2023-01-13T16:12:13.471Z,100122.91
2023-01-13T16:14:40.634Z,100121.63
2023-01-13T16:17:16.187Z,100119.28
2023-01-13T16:19:46.226Z,100133.38
2023-01-13T16:22:14.572Z,100137.41
2023-01-13T16:24:41.401Z,100135.78
2023-01-13T16:27:24.202Z,100143.66
2023-01-13T16:29:51.696Z,100134.88
2023-01-13T16:32:20.710Z,100145.34
2023-01-13T16:34:47.503Z,100158.34
2023-01-13T16:37:22.103Z,100159.34
2023-01-13T16:39:49.558Z,100156.25
2023-01-13T16:42:16.156Z,100162.34
2023-01-13T16:44:44.067Z,100166.56
2023-01-13T16:47:14.253Z,100163.91
2023-01-13T16:49:41.012Z,100163.66
2023-01-13T16:52:07.677Z,100166.41
2023-01-13T16:54:34.282Z,100183.91
2023-01-13T16:57:00.876Z,100185.44
2023-01-13T16:59:27.487Z,100189.25
2023-01-13T17:01:54.136Z,100192.19
2023-01-13T17:04:23.585Z,100198.78
2023-01-13T17:06:57.742Z,100207.03
2023-01-13T17:09:26.773Z,100215.41
2023-01-13T17:11:53.821Z,100221.66
2023-01-13T17:14:23.295Z,100229.22
2023-01-13T17:16:55.375Z,100223.31
2023-01-13T17:19:36.233Z,100229.19
2023-01-13T17:22:14.515Z,100189.34
2023-01-13T17:24:41.764Z,100215.63
2023-01-13T17:27:08.487Z,100225.03
2023-01-13T17:29:35.581Z,100219.09
2023-01-13T17:32:02.447Z,100237.66
2023-01-13T17:34:29.293Z,100232.97
2023-01-13T17:36:56.341Z,100246.69
2023-01-13T17:39:26.700Z,100248.44
2023-01-13T17:41:55.986Z,100254.38
2023-01-13T17:44:23.557Z,100256.06
2023-01-13T17:46:50.550Z,100248.53
2023-01-13T17:49:19.123Z,100257.13
2023-01-13T17:51:51.027Z,100253.00
2023-01-13T17:54:20.678Z,100253.69
2023-01-13T17:56:47.303Z,100261.47
2023-01-13T17:59:16.580Z,100266.63
2023-01-13T18:01:43.762Z,100278.19
2023-01-13T18:04:27.229Z,100272.81
2023-01-13T18:06:54.567Z,100283.06
2023-01-13T18:09:21.747Z,100280.50
2023-01-13T18:11:48.407Z,100279.72
2023-01-13T18:14:15.931Z,100286.00
2023-01-13T18:16:45.760Z,100292.09
2023-01-13T18:19:31.046Z,100293.66
2023-01-13T18:22:23.394Z,100297.25
2023-01-13T18:25:08.759Z,100290.72
2023-01-13T18:27:38.160Z,100295.41
2023-01-13T18:30:06.583Z,100307.06
2023-01-13T18:32:34.428Z,100311.88
2023-01-13T18:35:09.108Z,100311.06
2023-01-13T18:37:41.980Z,100309.63
2023-01-13T18:40:14.612Z,100323.59
2023-01-13T18:42:59.029Z,100319.81
2023-01-13T18:45:31.750Z,100332.97
2023-01-13T18:48:00.972Z,100325.16
2023-01-13T18:50:28.304Z,100332.16
2023-01-13T18:52:55.544Z,100326.16
2023-01-13T18:55:28.861Z,100324.97
2023-01-13T18:57:56.585Z,100339.56
2023-01-13T19:00:26.816Z,100332.09
2023-01-13T19:05:34.486Z,100338.66
2023-01-13T19:08:01.132Z,100342.25
2023-01-13T19:10:31.793Z,100358.03
2023-01-13T19:12:58.458Z,100363.66
2023-01-13T19:15:25.055Z,100363.28
2023-01-13T19:17:51.822Z,100369.16
2023-01-13T19:20:20.044Z,100379.63
2023-01-13T19:22:53.734Z,100384.94
2023-01-13T19:25:20.282Z,100385.25
2023-01-13T19:27:46.949Z,100406.16
2023-01-13T19:30:18.175Z,100398.22
2023-01-13T19:32:44.949Z,100403.72
2023-01-13T19:35:17.358Z,100408.25
2023-01-13T19:37:44.471Z,100404.06
2023-01-13T19:40:13.829Z,100419.94
2023-01-13T19:42:59.151Z,100424.66
2023-01-13T19:45:30.910Z,100429.28
2023-01-13T19:48:01.832Z,100438.53
2023-01-13T19:50:28.640Z,100434.53
2023-01-13T19:52:55.237Z,100435.88
2023-01-13T19:55:22.245Z,100436.47
2023-01-13T19:57:48.829Z,100441.06
2023-01-13T20:00:20.740Z,100447.91
2023-01-13T20:02:49.518Z,100438.47
2023-01-13T20:05:21.172Z,100442.63
2023-01-13T20:07:51.968Z,100462.06
2023-01-13T20:10:20.696Z,100452.88
2023-01-13T20:12:47.835Z,100458.16
2023-01-13T20:15:15.447Z,100472.94
2023-01-13T20:17:42.485Z,100481.84
2023-01-13T20:20:12.309Z,100475.88
2023-01-13T20:22:40.070Z,100470.97
2023-01-13T20:25:07.910Z,100477.06
2023-01-13T20:27:35.496Z,100472.88
2023-01-13T20:30:02.081Z,100489.75
2023-01-13T20:32:28.919Z,100487.44
2023-01-13T20:34:55.465Z,100496.84
2023-01-13T20:37:22.801Z,100494.59
2023-01-13T20:39:49.529Z,100483.03
2023-01-13T20:42:34.777Z,100507.41
2023-01-13T20:45:01.371Z,100502.22
2023-01-13T20:47:29.577Z,100510.41
2023-01-13T20:49:56.237Z,100516.53
2023-01-13T20:52:23.316Z,100515.66
2023-01-13T20:54:50.099Z,100524.06
2023-01-13T20:57:16.903Z,100527.59
2023-01-13T20:59:43.564Z,100531.22
2023-01-13T21:02:15.513Z,100527.59
2023-01-13T21:04:42.634Z,100540.13
2023-01-13T21:07:09.752Z,100546.81
2023-01-13T21:09:36.657Z,100533.34
2023-01-13T21:12:22.468Z,100529.97
2023-01-13T21:15:07.694Z,100537.03
2023-01-13T21:17:52.931Z,100539.34
2023-01-13T21:20:19.835Z,100547.31
2023-01-13T21:22:47.960Z,100544.13
2023-01-13T21:25:15.863Z,100542.50
2023-01-13T21:27:43.995Z,100538.47
2023-01-13T21:30:15.676Z,100547.69
2023-01-13T21:32:44.110Z,100542.59
2023-01-13T21:35:12.374Z,100536.81
2023-01-13T21:37:40.207Z,100547.41
2023-01-13T21:40:08.437Z,100545.06
2023-01-13T21:42:53.620Z,100554.78
2023-01-13T21:45:39.029Z,100549.88
2023-01-13T21:48:05.994Z,100563.22
2023-01-13T21:50:32.808Z,100561.03
2023-01-13T21:52:59.676Z,100564.81
2023-01-13T21:55:29.274Z,100565.97
2023-01-13T21:57:58.666Z,100571.78
2023-01-13T22:00:31.247Z,100578.50
2023-01-13T22:02:59.585Z,100575.41
2023-01-13T22:05:26.367Z,100586.47
2023-01-13T22:07:53.561Z,100596.34
2023-01-13T22:10:25.779Z,100609.94
2023-01-13T22:12:54.286Z,100607.25
2023-01-13T22:15:22.216Z,100607.16
2023-01-13T22:17:52.431Z,100610.13
2023-01-13T22:20:19.893Z,100605.47
2023-01-13T22:22:47.137Z,100609.28
2023-01-13T22:25:15.307Z,100616.31
2023-01-13T22:27:44.251Z,100628.91
2023-01-13T22:30:18.069Z,100622.00
2023-01-13T22:32:46.359Z,100627.69
2023-01-13T22:35:15.071Z,100621.66
2023-01-13T22:37:42.591Z,100639.53
2023-01-13T22:40:12.365Z,100629.31
2023-01-13T22:42:40.266Z,100633.41
2023-01-13T22:45:10.467Z,100638.63
2023-01-13T22:47:37.279Z,100638.31
2023-01-13T22:50:04.506Z,100640.38
2023-01-13T22:52:31.193Z,100643.78
2023-01-13T22:55:00.636Z,100652.69
2023-01-13T22:57:36.716Z,100650.13
2023-01-13T23:00:14.747Z,100643.16
2023-01-13T23:02:41.437Z,100639.25
2023-01-13T23:05:08.420Z,100653.13
2023-01-13T23:07:35.594Z,100644.72
2023-01-13T23:10:02.870Z,100645.06
2023-01-13T23:12:29.403Z,100652.31
2023-01-13T23:14:55.993Z,100660.56
2023-01-13T23:17:22.787Z,100652.72
2023-01-13T23:19:49.291Z,100655.34
2023-01-13T23:22:15.896Z,100654.97
2023-01-13T23:24:42.564Z,100661.09
2023-01-13T23:27:09.124Z,100655.06
2023-01-13T23:29:35.652Z,100662.31
2023-01-13T23:32:02.194Z,100651.75
2023-01-13T23:34:28.761Z,100656.22
2023-01-13T23:36:55.296Z,100657.69
2023-01-13T23:39:21.990Z,100663.00
2023-01-13T23:41:48.494Z,100649.47
2023-01-13T23:44:15.151Z,100655.88
2023-01-13T23:46:41.897Z,100663.19
2023-01-13T23:49:08.469Z,100670.19
2023-01-13T23:51:35.062Z,100666.28
2023-01-13T23:54:01.660Z,100677.84
2023-01-13T23:56:30.574Z,100666.56
2023-01-13T23:58:57.259Z,100661.44
